createdAt,value
2022-09-06T00:01:30.070Z,12.35
2022-09-06T00:03:57.766Z,15.57
2022-09-06T00:06:25.410Z,14.15
2022-09-06T00:08:53.004Z,13.93
2022-09-06T00:11:20.831Z,13.80
2022-09-06T00:13:48.923Z,13.98
2022-09-06T00:16:20.456Z,17.52
2022-09-06T00:18:48.121Z,13.52
2022-09-06T00:21:18.980Z,14.23
2022-09-06T00:23:47.085Z,15.50
2022-09-06T00:26:14.980Z,15.57
2022-09-06T00:28:42.665Z,14.68
2022-09-06T00:31:23.065Z,14.60
2022-09-06T00:33:51.195Z,15.52
2022-09-06T00:36:19.910Z,15.20
2022-09-06T00:38:47.478Z,13.73
2022-09-06T00:41:16.769Z,16.13
2022-09-06T00:43:44.549Z,16.85
2022-09-06T00:46:17.474Z,14.20
2022-09-06T00:48:47.454Z,17.73
2022-09-06T00:51:16.859Z,17.25
2022-09-06T00:53:44.868Z,16.25
2022-09-06T00:56:13.750Z,16.08
2022-09-06T00:58:41.445Z,13.68
2022-09-06T01:01:09.031Z,14.95
2022-09-06T01:03:37.478Z,13.35
2022-09-06T01:06:20.395Z,15.75
2022-09-06T01:08:58.706Z,12.68
2022-09-06T01:11:41.279Z,16.27
2022-09-06T01:14:15.535Z,16.90
2022-09-06T01:17:01.651Z,14.18
2022-09-06T01:19:58.884Z,17.00
2022-09-06T01:22:53.364Z,13.75
2022-09-06T01:25:52.019Z,14.52
2022-09-06T01:28:40.198Z,13.35
2022-09-06T01:31:25.994Z,13.43
2022-09-06T01:34:08.742Z,13.43
2022-09-06T01:37:09.954Z,14.57
2022-09-06T01:39:40.979Z,11.93
2022-09-06T01:42:18.601Z,12.93
2022-09-06T01:44:50.669Z,14.20
2022-09-06T01:47:56.958Z,12.05
2022-09-06T01:50:45.818Z,14.68
2022-09-06T01:53:31.510Z,16.10
2022-09-06T01:56:10.716Z,12.38
2022-09-06T01:58:50.286Z,18.00
2022-09-06T02:01:38.143Z,16.42
2022-09-06T02:04:20.528Z,14.60
2022-09-06T02:06:54.948Z,15.30
2022-09-06T02:09:26.007Z,14.93
2022-09-06T02:11:58.171Z,12.77
2022-09-06T02:14:36.948Z,13.30
2022-09-06T02:17:06.772Z,12.73
2022-09-06T02:19:45.709Z,13.73
2022-09-06T02:22:18.888Z,11.98
2022-09-06T02:24:49.429Z,13.70
2022-09-06T02:27:17.094Z,13.07
2022-09-06T02:29:45.069Z,12.25
2022-09-06T02:32:12.608Z,13.75
2022-09-06T02:34:41.181Z,13.60
2022-09-06T02:37:09.411Z,12.05
2022-09-06T02:39:37.033Z,12.43
2022-09-06T02:42:06.209Z,15.18
2022-09-06T02:44:33.725Z,13.68
2022-09-06T02:47:03.105Z,12.48
2022-09-06T02:49:31.231Z,12.63
2022-09-06T02:51:58.822Z,18.13
2022-09-06T02:54:26.290Z,15.90
2022-09-06T02:56:53.837Z,14.68
2022-09-06T02:59:21.304Z,15.52
2022-09-06T03:01:48.795Z,15.65
2022-09-06T03:04:16.365Z,19.42
2022-09-06T03:06:43.874Z,13.15
2022-09-06T03:09:11.355Z,17.60
2022-09-06T03:11:38.959Z,14.45
2022-09-06T03:14:06.534Z,16.40
2022-09-06T03:16:34.259Z,12.88
2022-09-06T03:19:01.777Z,14.48
2022-09-06T03:21:29.399Z,15.07
2022-09-06T03:23:56.837Z,15.80
2022-09-06T03:26:24.395Z,16.65
2022-09-06T03:28:51.978Z,17.92
2022-09-06T03:31:19.619Z,18.10
2022-09-06T03:33:47.277Z,16.98
2022-09-06T03:36:15.858Z,16.67
2022-09-06T03:38:43.393Z,15.50
2022-09-06T03:41:11.014Z,16.20
2022-09-06T03:43:38.538Z,16.80
2022-09-06T03:46:06.318Z,16.85
2022-09-06T03:48:33.857Z,19.08
2022-09-06T03:51:01.444Z,17.23
2022-09-06T03:53:29.681Z,15.40
2022-09-06T03:55:58.507Z,16.65
2022-09-06T03:58:30.898Z,17.30
2022-09-06T04:01:07.186Z,16.92
2022-09-06T04:03:36.460Z,17.95
2022-09-06T04:06:06.009Z,17.33
2022-09-06T04:08:34.415Z,18.13
2022-09-06T04:11:02.057Z,16.90
2022-09-06T04:13:32.430Z,17.92
2022-09-06T04:16:00.173Z,16.13
2022-09-06T04:18:27.715Z,16.80
2022-09-06T04:20:56.519Z,19.65
2022-09-06T04:23:26.296Z,21.58
2022-09-06T04:25:55.988Z,18.67
2022-09-06T04:28:25.104Z,17.95
2022-09-06T04:31:05.279Z,18.08
2022-09-06T04:33:35.344Z,16.70
2022-09-06T04:36:05.904Z,17.95
2022-09-06T04:38:42.342Z,15.88
2022-09-06T04:41:11.564Z,15.63
2022-09-06T04:43:39.341Z,15.20
2022-09-06T04:46:20.622Z,14.05
2022-09-06T04:48:49.779Z,14.30
2022-09-06T04:51:17.985Z,14.88
2022-09-06T04:53:46.335Z,14.30
2022-09-06T04:56:23.365Z,13.23
2022-09-06T04:58:52.917Z,13.23
2022-09-06T05:01:21.009Z,12.63
2022-09-06T05:03:48.899Z,14.07
2022-09-06T05:06:24.546Z,18.25
2022-09-06T05:08:52.545Z,14.90
2022-09-06T05:11:21.018Z,16.65
2022-09-06T05:13:50.404Z,14.55
2022-09-06T05:16:18.104Z,13.13
2022-09-06T05:18:45.818Z,13.40
2022-09-06T05:21:13.329Z,14.77
2022-09-06T05:23:40.930Z,13.93
2022-09-06T05:26:09.121Z,12.10
2022-09-06T05:28:36.859Z,15.63
2022-09-06T05:31:28.864Z,16.83
2022-09-06T05:33:57.840Z,15.20
2022-09-06T05:36:27.574Z,13.60
2022-09-06T05:38:56.454Z,14.05
2022-09-06T05:41:24.425Z,18.52
2022-09-06T05:43:52.218Z,15.63
2022-09-06T05:46:19.943Z,14.38
2022-09-06T05:48:55.186Z,12.27
2022-09-06T05:51:22.728Z,11.00
2022-09-06T05:53:50.599Z,14.45
2022-09-06T05:56:19.185Z,12.23
2022-09-06T05:58:46.655Z,13.40
2022-09-06T06:01:23.623Z,9.40
2022-09-06T06:03:52.097Z,13.45
2022-09-06T06:06:20.470Z,11.43
2022-09-06T06:08:48.569Z,14.95
2022-09-06T06:11:16.709Z,16.80
2022-09-06T06:13:44.790Z,12.68
2022-09-06T06:16:15.239Z,18.92
2022-09-06T06:18:47.651Z,13.70
2022-09-06T06:21:22.926Z,17.15
2022-09-06T06:23:55.804Z,12.38
2022-09-06T06:26:24.290Z,18.20
2022-09-06T06:28:52.418Z,16.83
2022-09-06T06:31:22.662Z,16.25
2022-09-06T06:33:51.045Z,15.98
2022-09-06T06:36:22.181Z,12.75
2022-09-06T06:38:52.164Z,15.35
2022-09-06T06:41:24.238Z,16.27
2022-09-06T06:43:56.675Z,12.95
2022-09-06T06:46:27.158Z,13.45
2022-09-06T06:48:55.547Z,11.02
2022-09-06T06:51:25.790Z,9.57
2022-09-06T06:53:53.539Z,12.93
2022-09-06T06:56:24.437Z,8.82
2022-09-06T06:58:54.590Z,13.40
2022-09-06T07:01:22.825Z,9.77
2022-09-06T07:03:50.929Z,9.80
2022-09-06T07:06:19.725Z,10.30
2022-09-06T07:08:47.411Z,8.90
2022-09-06T07:11:19.435Z,9.10
2022-09-06T07:13:49.757Z,7.95
2022-09-06T07:16:23.452Z,10.70
2022-09-06T07:18:52.784Z,8.88
2022-09-06T07:21:41.947Z,9.63
2022-09-06T07:24:10.287Z,11.95
2022-09-06T07:26:39.555Z,10.07
2022-09-06T07:29:08.295Z,9.52
2022-09-06T07:34:26.118Z,9.85
2022-09-06T07:36:54.912Z,7.82
2022-09-06T07:39:23.110Z,9.48
2022-09-06T07:41:50.735Z,8.93
2022-09-06T07:44:18.368Z,8.20
2022-09-06T07:46:45.947Z,9.38
2022-09-06T07:49:13.670Z,10.05
2022-09-06T07:51:41.138Z,9.68
2022-09-06T07:56:56.188Z,8.82
2022-09-06T07:59:23.779Z,8.52
2022-09-06T08:01:51.504Z,9.98
2022-09-06T08:04:19.029Z,6.50
2022-09-06T08:09:37.599Z,9.85
2022-09-06T08:12:08.918Z,10.70
2022-09-06T08:14:36.574Z,7.72
2022-09-06T08:17:04.388Z,8.00
2022-09-06T08:19:32.071Z,12.30
2022-09-06T08:21:59.788Z,8.57
2022-09-06T08:24:27.439Z,11.02
2022-09-06T08:26:54.977Z,10.32
2022-09-06T08:29:22.548Z,10.57
2022-09-06T08:31:50.050Z,13.40
2022-09-06T08:34:17.708Z,12.68
2022-09-06T08:36:46.081Z,10.55
2022-09-06T08:39:13.671Z,13.00
2022-09-06T08:41:53.377Z,14.18
2022-09-06T08:47:21.184Z,11.23
2022-09-06T08:49:54.801Z,9.80
2022-09-06T08:53:18.471Z,10.23
2022-09-06T08:55:53.038Z,11.30
2022-09-06T08:58:55.869Z,8.60
2022-09-06T09:01:34.046Z,11.25
2022-09-06T09:04:05.497Z,7.90
2022-09-06T09:06:33.887Z,10.40
2022-09-06T09:09:07.375Z,8.63
2022-09-06T09:11:36.444Z,8.15
2022-09-06T09:14:29.334Z,7.97
2022-09-06T09:17:05.253Z,9.82
2022-09-06T09:19:36.901Z,10.52
2022-09-06T09:22:04.535Z,7.80
2022-09-06T09:24:32.500Z,8.20
2022-09-06T09:27:11.449Z,8.63
2022-09-06T09:32:45.012Z,8.52
2022-09-06T09:35:36.358Z,5.78
2022-09-06T09:38:12.092Z,5.97
2022-09-06T09:40:49.365Z,10.07
2022-09-06T09:43:33.938Z,7.95
2022-09-06T09:46:33.302Z,7.38
2022-09-06T09:49:12.705Z,5.90
2022-09-06T09:52:04.419Z,9.10
2022-09-06T09:54:35.276Z,10.57
2022-09-06T09:57:11.713Z,8.52
2022-09-06T09:59:43.849Z,11.80
2022-09-06T10:02:28.275Z,9.30
2022-09-06T10:05:13.937Z,10.88
2022-09-06T10:07:53.830Z,10.43
2022-09-06T10:10:27.359Z,7.47
2022-09-06T10:13:21.866Z,10.90
2022-09-06T10:15:52.781Z,7.88
2022-09-06T10:18:31.269Z,8.00
2022-09-06T10:21:11.919Z,8.25
2022-09-06T10:26:55.984Z,6.70
2022-09-06T10:29:33.299Z,7.47
2022-09-06T10:32:41.799Z,7.80
2022-09-06T10:35:31.014Z,7.13
2022-09-06T10:38:16.950Z,8.15
2022-09-06T10:40:53.668Z,7.35
2022-09-06T10:43:21.409Z,7.07
2022-09-06T10:46:04.817Z,8.65
2022-09-06T10:48:40.496Z,6.80
2022-09-06T10:51:32.785Z,9.23
2022-09-06T10:54:03.514Z,9.68
2022-09-06T10:56:36.797Z,7.95
2022-09-06T10:59:36.398Z,8.23
2022-09-06T11:02:20.370Z,6.20
2022-09-06T11:10:37.987Z,9.77
2022-09-06T11:13:22.888Z,6.63
2022-09-06T11:16:15.029Z,7.60
2022-09-06T11:19:04.440Z,6.45
2022-09-06T11:21:54.428Z,6.15
2022-09-06T11:24:36.921Z,8.68
2022-09-06T11:27:14.565Z,5.45
2022-09-06T11:29:47.425Z,5.55
2022-09-06T11:32:37.727Z,7.72
2022-09-06T11:35:11.487Z,9.65
2022-09-06T11:42:56.087Z,6.25
2022-09-06T11:45:49.091Z,20.10
2022-09-06T11:48:26.741Z,5.25
2022-09-06T11:50:54.455Z,7.60
2022-09-06T11:53:28.899Z,8.38
2022-09-06T11:56:00.312Z,6.28
2022-09-06T11:58:51.457Z,5.95
2022-09-06T12:01:20.988Z,6.50
2022-09-06T12:04:05.387Z,7.20
2022-09-06T12:06:44.110Z,7.68
2022-09-06T12:09:31.778Z,5.97
2022-09-06T12:12:01.544Z,6.13
2022-09-06T12:14:41.164Z,5.93
2022-09-06T12:17:10.078Z,6.88
2022-09-06T12:20:04.267Z,6.20
2022-09-06T12:22:36.225Z,7.55
2022-09-06T12:25:46.878Z,7.28
2022-09-06T12:28:42.813Z,5.43
2022-09-06T12:31:36.818Z,8.20
2022-09-06T12:34:17.619Z,7.18
2022-09-06T12:36:54.397Z,6.60
2022-09-06T12:39:22.447Z,6.13
2022-09-06T12:41:55.269Z,8.25
2022-09-06T12:44:43.725Z,6.03
2022-09-06T12:47:24.498Z,7.53
2022-09-06T12:50:26.015Z,5.47
2022-09-06T12:53:01.818Z,7.00
2022-09-06T12:55:33.509Z,7.93
2022-09-06T12:58:04.358Z,4.95
2022-09-06T13:00:41.324Z,6.47
2022-09-06T13:03:39.849Z,5.97
2022-09-06T13:06:08.269Z,6.65
2022-09-06T13:08:50.054Z,7.70
2022-09-06T13:11:28.627Z,7.63
2022-09-06T13:13:56.689Z,6.40
2022-09-06T13:16:31.389Z,7.38
2022-09-06T13:19:18.172Z,8.82
2022-09-06T13:21:47.641Z,6.63
2022-09-06T13:24:27.288Z,6.32
2022-09-06T13:26:55.229Z,8.32
2022-09-06T13:29:33.288Z,7.13
2022-09-06T13:32:03.134Z,6.03
2022-09-06T13:34:34.331Z,6.13
2022-09-06T13:37:08.287Z,10.40
2022-09-06T13:39:38.568Z,7.15
2022-09-06T13:42:09.978Z,7.38
2022-09-06T13:44:40.009Z,10.18
2022-09-06T13:47:10.107Z,8.20
2022-09-06T13:49:39.534Z,9.50
2022-09-06T13:52:08.308Z,7.40
2022-09-06T13:54:37.376Z,9.02
2022-09-06T13:57:05.034Z,12.02
2022-09-06T13:59:33.310Z,13.73
2022-09-06T14:02:15.298Z,16.15
2022-09-06T14:04:44.505Z,12.55
2022-09-06T14:07:17.788Z,10.88
2022-09-06T14:09:48.000Z,13.30
2022-09-06T14:12:15.751Z,12.40
2022-09-06T14:14:44.949Z,13.00
2022-09-06T14:17:13.944Z,15.48
2022-09-06T14:19:41.725Z,15.55
2022-09-06T14:22:09.477Z,14.63
2022-09-06T14:24:37.567Z,13.38
2022-09-06T14:27:08.828Z,19.48
2022-09-06T14:29:38.040Z,19.27
2022-09-06T14:32:05.862Z,15.38
2022-09-06T14:34:34.993Z,16.10
2022-09-06T14:37:04.560Z,16.40
2022-09-06T14:39:34.115Z,16.45
2022-09-06T14:42:02.179Z,13.30
2022-09-06T14:44:30.548Z,15.98
2022-09-06T14:46:59.908Z,20.17
2022-09-06T14:49:27.789Z,19.15
2022-09-06T14:51:55.479Z,18.85
2022-09-06T14:54:27.388Z,18.75
2022-09-06T14:56:56.989Z,18.40
2022-09-06T14:59:24.862Z,14.93
2022-09-06T15:01:52.845Z,16.45
2022-09-06T15:04:24.239Z,14.60
2022-09-06T15:06:54.326Z,13.43
2022-09-06T15:09:22.189Z,16.63
2022-09-06T15:11:51.959Z,14.25
2022-09-06T15:14:24.990Z,12.93
2022-09-06T15:17:00.131Z,15.70
2022-09-06T15:19:30.027Z,13.38
2022-09-06T15:21:59.137Z,16.73
2022-09-06T15:24:29.294Z,14.73
2022-09-06T15:26:59.423Z,12.63
2022-09-06T15:29:28.429Z,16.13
2022-09-06T15:31:56.126Z,18.67
2022-09-06T15:34:26.612Z,19.42
2022-09-06T15:36:54.792Z,18.45
2022-09-06T15:39:22.909Z,16.88
2022-09-06T15:41:52.100Z,23.00
2022-09-06T15:44:22.012Z,23.67
2022-09-06T15:46:55.039Z,21.98
2022-09-06T15:52:01.105Z,21.95
2022-09-06T15:54:48.350Z,19.58
2022-09-06T15:57:17.055Z,24.65
2022-09-06T15:59:45.400Z,27.95
2022-09-06T16:02:14.136Z,30.38
2022-09-06T16:04:41.948Z,28.50
2022-09-06T16:07:16.017Z,26.55
2022-09-06T16:09:43.899Z,28.73
2022-09-06T16:12:13.358Z,26.67
2022-09-06T16:14:44.950Z,27.25
2022-09-06T16:17:13.107Z,26.35
2022-09-06T16:19:42.135Z,27.33
2022-09-06T16:22:12.689Z,30.40
2022-09-06T16:24:40.403Z,23.15
2022-09-06T16:27:16.502Z,28.23
2022-09-06T16:29:45.749Z,25.48
2022-09-06T16:32:14.388Z,27.17
2022-09-06T16:34:43.677Z,29.40
2022-09-06T16:37:11.549Z,30.05
2022-09-06T16:39:40.756Z,26.05
2022-09-06T16:42:08.654Z,24.10
2022-09-06T16:44:38.105Z,24.77
2022-09-06T16:47:11.657Z,28.05
2022-09-06T16:49:42.584Z,24.90
2022-09-06T16:52:10.350Z,30.40
2022-09-06T16:54:40.288Z,30.40
2022-09-06T16:57:10.428Z,27.88
2022-09-06T16:59:39.352Z,29.17
2022-09-06T17:02:07.295Z,27.25
2022-09-06T17:04:35.785Z,26.13
2022-09-06T17:07:06.236Z,25.48
2022-09-06T17:09:37.469Z,25.73
2022-09-06T17:12:22.519Z,31.08
2022-09-06T17:14:51.498Z,29.48
2022-09-06T17:17:20.840Z,28.67
2022-09-06T17:19:50.499Z,27.25
2022-09-06T17:22:19.159Z,29.45
2022-09-06T17:24:50.550Z,24.40
2022-09-06T17:27:18.531Z,19.98
2022-09-06T17:29:46.261Z,20.63
2022-09-06T17:32:18.019Z,20.85
2022-09-06T17:34:46.550Z,22.38
2022-09-06T17:37:19.347Z,24.45
2022-09-06T17:39:51.337Z,24.73
2022-09-06T17:42:19.351Z,23.88
2022-09-06T17:44:47.152Z,24.08
2022-09-06T17:47:14.964Z,25.20
2022-09-06T17:49:43.804Z,33.15
2022-09-06T17:52:12.350Z,30.25
2022-09-06T17:54:43.590Z,22.50
2022-09-06T17:57:13.261Z,24.77
2022-09-06T17:59:43.597Z,25.35
2022-09-06T18:02:11.293Z,26.98
2022-09-06T18:04:41.630Z,23.30
2022-09-06T18:07:11.610Z,23.58
2022-09-06T18:09:42.821Z,24.65
2022-09-06T18:12:22.809Z,19.35
2022-09-06T18:14:53.270Z,19.35
2022-09-06T18:17:23.337Z,22.40
2022-09-06T18:19:53.820Z,19.98
2022-09-06T18:22:25.067Z,21.60
2022-09-06T18:25:09.151Z,21.17
2022-09-06T18:27:36.992Z,21.30
2022-09-06T18:30:05.021Z,24.85
2022-09-06T18:32:33.851Z,26.13
2022-09-06T18:35:01.631Z,27.23
2022-09-06T18:37:30.431Z,33.03
2022-09-06T18:40:07.386Z,34.95
2022-09-06T18:42:39.459Z,33.60
2022-09-06T18:47:40.150Z,33.83
2022-09-06T18:50:09.021Z,32.65
2022-09-06T18:52:38.709Z,37.63
2022-09-06T18:55:07.283Z,31.88
2022-09-06T18:57:36.077Z,35.58
2022-09-06T19:00:08.151Z,38.08
2022-09-06T19:02:36.324Z,37.47
2022-09-06T19:05:05.145Z,38.17
2022-09-06T19:07:35.442Z,33.85
2022-09-06T19:10:05.439Z,33.25
2022-09-06T19:12:34.911Z,26.25
2022-09-06T19:15:05.017Z,26.65
2022-09-06T19:17:32.827Z,21.60
2022-09-06T19:20:02.417Z,22.08
2022-09-06T19:22:32.712Z,25.42
2022-09-06T19:25:00.961Z,23.05
2022-09-06T19:27:30.130Z,21.88
2022-09-06T19:29:58.080Z,18.77
2022-09-06T19:32:29.240Z,23.08
2022-09-06T19:34:56.981Z,20.55
2022-09-06T19:37:28.140Z,18.40
2022-09-06T19:39:56.262Z,21.75
2022-09-06T19:42:25.700Z,18.27
2022-09-06T19:44:54.442Z,22.85
2022-09-06T19:47:22.076Z,22.40
2022-09-06T19:49:50.464Z,20.85
2022-09-06T19:52:19.291Z,19.38
2022-09-06T19:54:52.157Z,21.67
2022-09-06T19:57:21.770Z,19.73
2022-09-06T19:59:49.780Z,20.63
2022-09-06T20:02:18.484Z,16.65
2022-09-06T20:04:46.944Z,21.45
2022-09-06T20:07:15.391Z,25.92
2022-09-06T20:09:43.097Z,24.25
2022-09-06T20:12:12.361Z,25.98
2022-09-06T20:14:41.211Z,23.23
2022-09-06T20:17:32.314Z,20.80
2022-09-06T20:19:58.997Z,18.58
2022-09-06T20:22:33.237Z,17.02
2022-09-06T20:25:01.047Z,19.23
2022-09-06T20:27:28.700Z,20.48
2022-09-06T20:29:59.391Z,23.05
2022-09-06T20:32:29.142Z,20.23
2022-09-06T20:34:58.739Z,21.60
2022-09-06T20:37:28.391Z,22.17
2022-09-06T20:39:56.329Z,26.48
2022-09-06T20:42:24.110Z,27.90
2022-09-06T20:44:51.777Z,26.15
2022-09-06T20:47:20.991Z,22.98
2022-09-06T20:49:49.131Z,25.08
2022-09-06T20:52:16.797Z,24.52
2022-09-06T20:54:44.467Z,19.90
2022-09-06T20:57:12.152Z,22.38
2022-09-06T20:59:39.838Z,18.77
2022-09-06T21:02:07.946Z,20.20
2022-09-06T21:04:35.712Z,17.02
2022-09-06T21:07:03.629Z,20.08
2022-09-06T21:09:31.251Z,15.18
2022-09-06T21:11:59.331Z,15.18
2022-09-06T21:14:26.950Z,18.83
2022-09-06T21:16:54.570Z,16.05
2022-09-06T21:19:22.781Z,15.60
2022-09-06T21:21:50.251Z,14.98
2022-09-06T21:24:17.817Z,15.93
2022-09-06T21:26:45.371Z,15.77
2022-09-06T21:29:13.003Z,16.08
2022-09-06T21:31:40.771Z,15.02
2022-09-06T21:34:16.979Z,15.82
2022-09-06T21:36:45.057Z,15.00
2022-09-06T21:39:13.259Z,14.88
2022-09-06T21:41:42.460Z,15.18
2022-09-06T21:44:11.014Z,16.65
2022-09-06T21:46:39.776Z,15.68
2022-09-06T21:49:10.200Z,17.17
2022-09-06T21:51:38.142Z,16.55
2022-09-06T21:54:06.253Z,15.68
2022-09-06T21:56:36.065Z,17.00
2022-09-06T21:59:05.023Z,17.27
2022-09-06T22:01:34.552Z,13.77
2022-09-06T22:04:02.893Z,14.85
2022-09-06T22:06:33.307Z,16.35
2022-09-06T22:09:04.003Z,15.25
2022-09-06T22:11:33.995Z,20.25
2022-09-06T22:14:04.572Z,14.52
2022-09-06T22:16:34.142Z,17.83
2022-09-06T22:19:04.956Z,13.65
2022-09-06T22:21:33.041Z,12.88
2022-09-06T22:24:03.031Z,13.55
2022-09-06T22:26:32.823Z,13.93
2022-09-06T22:29:03.658Z,15.10
2022-09-06T22:31:33.071Z,15.40
2022-09-06T22:34:01.327Z,13.23
2022-09-06T22:36:29.285Z,15.32
2022-09-06T22:38:57.880Z,12.93
2022-09-06T22:41:27.293Z,12.55
2022-09-06T22:48:01.101Z,14.63
2022-09-06T22:50:30.518Z,11.82
2022-09-06T22:52:58.093Z,15.90
2022-09-06T22:55:25.711Z,13.00
2022-09-06T22:57:53.306Z,13.82
2022-09-06T23:00:20.870Z,15.13
2022-09-06T23:02:48.421Z,18.83
2022-09-06T23:05:15.957Z,13.35
2022-09-06T23:07:43.670Z,12.05
2022-09-06T23:10:12.113Z,13.13
2022-09-06T23:12:39.762Z,12.90
2022-09-06T23:15:07.901Z,13.73
2022-09-06T23:17:35.441Z,12.43
2022-09-06T23:20:04.090Z,11.32
2022-09-06T23:22:31.787Z,14.02
2022-09-06T23:24:59.501Z,14.75
2022-09-06T23:27:27.022Z,12.85
2022-09-06T23:29:54.671Z,14.82
2022-09-06T23:32:22.371Z,11.52
2022-09-06T23:34:50.001Z,14.75
2022-09-06T23:37:17.578Z,13.75
2022-09-06T23:39:45.436Z,18.63
2022-09-06T23:42:13.007Z,14.73
2022-09-06T23:44:40.660Z,15.50
2022-09-06T23:47:08.180Z,15.02
2022-09-06T23:49:35.840Z,13.30
2022-09-06T23:52:03.421Z,16.25
2022-09-06T23:54:31.081Z,17.65
2022-09-06T23:56:58.725Z,15.18
2022-09-06T23:59:26.401Z,13.52
